sensor_id;sensor_type;location;lat;lon;timestamp;P1;durP1;ratioP1;P2;durP2;ratioP2
21777;SDS011;11050;52.222;20.916;2023-05-29T00:00:56;4.10;;;2.80;;
21777;SDS011;11050;52.222;20.916;2023-05-29T00:03:22;6.00;;;2.90;;
21777;SDS011;11050;52.222;20.916;2023-05-29T00:05:47;7.60;;;3.00;;
21777;SDS011;11050;52.222;20.916;2023-05-29T00:08:14;7.18;;;2.80;;
21777;SDS011;11050;52.222;20.916;2023-05-29T00:10:40;8.43;;;3.47;;
21777;SDS011;11050;52.222;20.916;2023-05-29T00:13:06;8.35;;;3.00;;
21777;SDS011;11050;52.222;20.916;2023-05-29T00:15:32;4.55;;;2.95;;
21777;SDS011;11050;52.222;20.916;2023-05-29T00:17:57;7.22;;;3.13;;
21777;SDS011;11050;52.222;20.916;2023-05-29T00:20:23;6.97;;;2.95;;
21777;SDS011;11050;52.222;20.916;2023-05-29T00:22:49;7.05;;;3.10;;
21777;SDS011;11050;52.222;20.916;2023-05-29T00:25:14;7.57;;;2.63;;
21777;SDS011;11050;52.222;20.916;2023-05-29T00:27:41;7.00;;;2.80;;
21777;SDS011;11050;52.222;20.916;2023-05-29T00:30:07;6.15;;;2.90;;
21777;SDS011;11050;52.222;20.916;2023-05-29T00:32:33;10.30;;;3.60;;
21777;SDS011;11050;52.222;20.916;2023-05-29T00:34:59;8.65;;;2.88;;
21777;SDS011;11050;52.222;20.916;2023-05-29T00:37:25;7.65;;;2.92;;
21777;SDS011;11050;52.222;20.916;2023-05-29T00:39:50;6.25;;;3.08;;
21777;SDS011;11050;52.222;20.916;2023-05-29T00:42:16;4.40;;;2.67;;
21777;SDS011;11050;52.222;20.916;2023-05-29T00:44:42;5.32;;;2.90;;
21777;SDS011;11050;52.222;20.916;2023-05-29T00:47:08;6.47;;;3.08;;
21777;SDS011;11050;52.222;20.916;2023-05-29T00:49:35;4.38;;;2.78;;
21777;SDS011;11050;52.222;20.916;2023-05-29T00:52:02;6.75;;;2.60;;
21777;SDS011;11050;52.222;20.916;2023-05-29T00:54:34;5.65;;;3.03;;
21777;SDS011;11050;52.222;20.916;2023-05-29T00:57:01;5.78;;;2.88;;
21777;SDS011;11050;52.222;20.916;2023-05-29T00:59:30;6.15;;;2.67;;
21777;SDS011;11050;52.222;20.916;2023-05-29T01:01:58;6.65;;;2.95;;
21777;SDS011;11050;52.222;20.916;2023-05-29T01:04:27;5.13;;;2.67;;
21777;SDS011;11050;52.222;20.916;2023-05-29T01:06:53;7.50;;;2.90;;
21777;SDS011;11050;52.222;20.916;2023-05-29T01:09:18;4.88;;;3.00;;
21777;SDS011;11050;52.222;20.916;2023-05-29T01:17:39;7.15;;;3.10;;
21777;SDS011;11050;52.222;20.916;2023-05-29T01:29:18;10.98;;;3.53;;
21777;SDS011;11050;52.222;20.916;2023-05-29T01:31:48;6.85;;;3.40;;
21777;SDS011;11050;52.222;20.916;2023-05-29T01:34:14;9.50;;;3.00;;
21777;SDS011;11050;52.222;20.916;2023-05-29T01:36:40;7.93;;;3.42;;
21777;SDS011;11050;52.222;20.916;2023-05-29T01:39:06;6.28;;;3.08;;
21777;SDS011;11050;52.222;20.916;2023-05-29T01:41:33;5.40;;;2.95;;
21777;SDS011;11050;52.222;20.916;2023-05-29T01:44:01;5.80;;;3.03;;
21777;SDS011;11050;52.222;20.916;2023-05-29T01:46:36;10.00;;;3.17;;
21777;SDS011;11050;52.222;20.916;2023-05-29T01:49:04;5.97;;;3.45;;
21777;SDS011;11050;52.222;20.916;2023-05-29T01:51:31;6.17;;;2.93;;
21777;SDS011;11050;52.222;20.916;2023-05-29T01:53:57;5.20;;;3.30;;
21777;SDS011;11050;52.222;20.916;2023-05-29T01:56:25;6.60;;;3.10;;
21777;SDS011;11050;52.222;20.916;2023-05-29T01:58:52;4.82;;;2.55;;
21777;SDS011;11050;52.222;20.916;2023-05-29T02:01:23;7.05;;;3.42;;
21777;SDS011;11050;52.222;20.916;2023-05-29T02:03:49;4.65;;;2.80;;
21777;SDS011;11050;52.222;20.916;2023-05-29T02:06:18;6.53;;;3.03;;
21777;SDS011;11050;52.222;20.916;2023-05-29T02:08:45;8.03;;;3.30;;
21777;SDS011;11050;52.222;20.916;2023-05-29T02:11:11;3.85;;;2.92;;
21777;SDS011;11050;52.222;20.916;2023-05-29T02:13:37;5.93;;;3.10;;
21777;SDS011;11050;52.222;20.916;2023-05-29T02:16:03;11.17;;;3.20;;
21777;SDS011;11050;52.222;20.916;2023-05-29T02:18:29;8.00;;;3.07;;
21777;SDS011;11050;52.222;20.916;2023-05-29T02:20:56;5.75;;;3.10;;
21777;SDS011;11050;52.222;20.916;2023-05-29T02:23:21;7.90;;;3.00;;
21777;SDS011;11050;52.222;20.916;2023-05-29T02:25:47;7.30;;;3.40;;
21777;SDS011;11050;52.222;20.916;2023-05-29T02:28:13;6.33;;;3.10;;
21777;SDS011;11050;52.222;20.916;2023-05-29T02:30:39;8.97;;;3.37;;
21777;SDS011;11050;52.222;20.916;2023-05-29T02:33:04;7.60;;;3.57;;
21777;SDS011;11050;52.222;20.916;2023-05-29T02:35:31;10.73;;;3.17;;
21777;SDS011;11050;52.222;20.916;2023-05-29T02:37:57;5.72;;;2.88;;
21777;SDS011;11050;52.222;20.916;2023-05-29T02:40:22;5.40;;;3.30;;
21777;SDS011;11050;52.222;20.916;2023-05-29T02:42:49;4.43;;;3.03;;
21777;SDS011;11050;52.222;20.916;2023-05-29T02:45:15;8.60;;;3.20;;
21777;SDS011;11050;52.222;20.916;2023-05-29T02:47:41;5.57;;;3.33;;
21777;SDS011;11050;52.222;20.916;2023-05-29T02:50:07;7.00;;;3.47;;
21777;SDS011;11050;52.222;20.916;2023-05-29T02:52:34;6.33;;;3.07;;
21777;SDS011;11050;52.222;20.916;2023-05-29T02:55:01;8.27;;;3.40;;
21777;SDS011;11050;52.222;20.916;2023-05-29T02:57:29;9.40;;;3.93;;
21777;SDS011;11050;52.222;20.916;2023-05-29T02:59:54;6.90;;;3.67;;
21777;SDS011;11050;52.222;20.916;2023-05-29T03:02:20;9.68;;;3.70;;
21777;SDS011;11050;52.222;20.916;2023-05-29T03:04:46;6.40;;;3.30;;
21777;SDS011;11050;52.222;20.916;2023-05-29T03:07:15;7.03;;;3.65;;
21777;SDS011;11050;52.222;20.916;2023-05-29T03:09:40;7.65;;;3.40;;
21777;SDS011;11050;52.222;20.916;2023-05-29T03:12:06;7.53;;;3.70;;
21777;SDS011;11050;52.222;20.916;2023-05-29T03:14:32;8.85;;;3.47;;
21777;SDS011;11050;52.222;20.916;2023-05-29T03:17:01;10.65;;;3.72;;
21777;SDS011;11050;52.222;20.916;2023-05-29T03:19:29;5.67;;;3.60;;
21777;SDS011;11050;52.222;20.916;2023-05-29T03:21:54;5.97;;;3.60;;
21777;SDS011;11050;52.222;20.916;2023-05-29T03:24:20;8.10;;;3.85;;
21777;SDS011;11050;52.222;20.916;2023-05-29T03:26:46;8.80;;;4.20;;
21777;SDS011;11050;52.222;20.916;2023-05-29T03:29:12;6.55;;;3.58;;
21777;SDS011;11050;52.222;20.916;2023-05-29T03:31:37;7.43;;;3.87;;
21777;SDS011;11050;52.222;20.916;2023-05-29T03:34:03;6.20;;;3.60;;
21777;SDS011;11050;52.222;20.916;2023-05-29T03:36:28;11.32;;;4.00;;
21777;SDS011;11050;52.222;20.916;2023-05-29T03:38:54;7.32;;;3.90;;
21777;SDS011;11050;52.222;20.916;2023-05-29T03:41:20;9.52;;;3.83;;
21777;SDS011;11050;52.222;20.916;2023-05-29T03:43:46;8.77;;;4.22;;
21777;SDS011;11050;52.222;20.916;2023-05-29T03:46:11;7.35;;;3.97;;
21777;SDS011;11050;52.222;20.916;2023-05-29T03:48:37;8.35;;;3.63;;
21777;SDS011;11050;52.222;20.916;2023-05-29T03:51:03;12.82;;;3.92;;
21777;SDS011;11050;52.222;20.916;2023-05-29T03:53:29;9.07;;;4.50;;
21777;SDS011;11050;52.222;20.916;2023-05-29T03:55:55;10.50;;;4.53;;
21777;SDS011;11050;52.222;20.916;2023-05-29T03:58:21;12.35;;;4.55;;
21777;SDS011;11050;52.222;20.916;2023-05-29T04:00:47;8.88;;;4.60;;
21777;SDS011;11050;52.222;20.916;2023-05-29T04:03:12;9.93;;;4.55;;
21777;SDS011;11050;52.222;20.916;2023-05-29T04:05:38;12.30;;;4.78;;
21777;SDS011;11050;52.222;20.916;2023-05-29T04:08:04;11.30;;;5.25;;
21777;SDS011;11050;52.222;20.916;2023-05-29T04:10:30;14.93;;;5.00;;
21777;SDS011;11050;52.222;20.916;2023-05-29T04:12:58;13.25;;;6.13;;
21777;SDS011;11050;52.222;20.916;2023-05-29T04:15:25;11.50;;;5.40;;
21777;SDS011;11050;52.222;20.916;2023-05-29T04:17:55;8.82;;;5.20;;
21777;SDS011;11050;52.222;20.916;2023-05-29T04:20:21;9.85;;;5.75;;
21777;SDS011;11050;52.222;20.916;2023-05-29T04:22:47;14.13;;;6.20;;
21777;SDS011;11050;52.222;20.916;2023-05-29T04:25:12;13.57;;;5.85;;
21777;SDS011;11050;52.222;20.916;2023-05-29T04:27:38;9.88;;;5.00;;
21777;SDS011;11050;52.222;20.916;2023-05-29T04:30:04;9.82;;;4.85;;
21777;SDS011;11050;52.222;20.916;2023-05-29T04:32:32;9.60;;;4.68;;
21777;SDS011;11050;52.222;20.916;2023-05-29T04:34:58;8.25;;;4.65;;
21777;SDS011;11050;52.222;20.916;2023-05-29T04:37:27;8.70;;;3.63;;
21777;SDS011;11050;52.222;20.916;2023-05-29T04:39:56;7.03;;;3.58;;
21777;SDS011;11050;52.222;20.916;2023-05-29T04:42:22;4.63;;;2.80;;
21777;SDS011;11050;52.222;20.916;2023-05-29T04:44:50;6.30;;;2.92;;
21777;SDS011;11050;52.222;20.916;2023-05-29T04:47:18;6.93;;;3.08;;
21777;SDS011;11050;52.222;20.916;2023-05-29T04:49:44;6.07;;;2.38;;
21777;SDS011;11050;52.222;20.916;2023-05-29T04:52:13;7.20;;;2.63;;
21777;SDS011;11050;52.222;20.916;2023-05-29T04:54:40;4.43;;;2.70;;
21777;SDS011;11050;52.222;20.916;2023-05-29T04:57:06;4.68;;;2.65;;
21777;SDS011;11050;52.222;20.916;2023-05-29T04:59:31;7.60;;;2.30;;
21777;SDS011;11050;52.222;20.916;2023-05-29T05:01:57;4.88;;;2.30;;
21777;SDS011;11050;52.222;20.916;2023-05-29T05:04:23;6.13;;;2.47;;
21777;SDS011;11050;52.222;20.916;2023-05-29T05:06:49;5.20;;;2.95;;
21777;SDS011;11050;52.222;20.916;2023-05-29T05:09:15;4.68;;;2.65;;
21777;SDS011;11050;52.222;20.916;2023-05-29T05:11:40;6.45;;;2.58;;
21777;SDS011;11050;52.222;20.916;2023-05-29T05:14:06;6.55;;;2.90;;
21777;SDS011;11050;52.222;20.916;2023-05-29T05:16:32;10.25;;;2.90;;
21777;SDS011;11050;52.222;20.916;2023-05-29T05:18:58;11.63;;;2.85;;
21777;SDS011;11050;52.222;20.916;2023-05-29T05:21:23;6.32;;;2.28;;
21777;SDS011;11050;52.222;20.916;2023-05-29T05:23:49;6.10;;;2.78;;
21777;SDS011;11050;52.222;20.916;2023-05-29T05:26:15;8.38;;;2.13;;
21777;SDS011;11050;52.222;20.916;2023-05-29T05:28:40;9.90;;;2.67;;
21777;SDS011;11050;52.222;20.916;2023-05-29T05:31:06;11.55;;;2.80;;
21777;SDS011;11050;52.222;20.916;2023-05-29T05:33:32;13.52;;;3.33;;
21777;SDS011;11050;52.222;20.916;2023-05-29T05:35:58;8.32;;;3.38;;
21777;SDS011;11050;52.222;20.916;2023-05-29T05:38:23;15.88;;;3.05;;
21777;SDS011;11050;52.222;20.916;2023-05-29T05:40:49;14.73;;;2.88;;
21777;SDS011;11050;52.222;20.916;2023-05-29T05:43:15;9.18;;;2.85;;
21777;SDS011;11050;52.222;20.916;2023-05-29T05:45:40;9.95;;;2.85;;
21777;SDS011;11050;52.222;20.916;2023-05-29T05:48:07;15.68;;;3.15;;
21777;SDS011;11050;52.222;20.916;2023-05-29T05:50:34;13.23;;;3.42;;
21777;SDS011;11050;52.222;20.916;2023-05-29T05:53:00;10.43;;;2.85;;
21777;SDS011;11050;52.222;20.916;2023-05-29T05:55:25;16.17;;;3.10;;
21777;SDS011;11050;52.222;20.916;2023-05-29T05:57:53;25.60;;;4.15;;
21777;SDS011;11050;52.222;20.916;2023-05-29T06:00:21;21.50;;;3.85;;
21777;SDS011;11050;52.222;20.916;2023-05-29T06:02:48;18.45;;;3.63;;
21777;SDS011;11050;52.222;20.916;2023-05-29T06:05:14;14.38;;;2.85;;
21777;SDS011;11050;52.222;20.916;2023-05-29T06:07:40;14.90;;;3.38;;
21777;SDS011;11050;52.222;20.916;2023-05-29T06:10:06;11.80;;;4.05;;
21777;SDS011;11050;52.222;20.916;2023-05-29T06:12:33;10.30;;;2.70;;
21777;SDS011;11050;52.222;20.916;2023-05-29T06:14:59;17.63;;;3.45;;
21777;SDS011;11050;52.222;20.916;2023-05-29T06:17:25;17.92;;;3.10;;
21777;SDS011;11050;52.222;20.916;2023-05-29T06:19:51;17.30;;;3.25;;
21777;SDS011;11050;52.222;20.916;2023-05-29T06:22:18;12.98;;;3.08;;
21777;SDS011;11050;52.222;20.916;2023-05-29T06:24:44;10.32;;;2.63;;
21777;SDS011;11050;52.222;20.916;2023-05-29T06:27:09;8.98;;;2.35;;
21777;SDS011;11050;52.222;20.916;2023-05-29T06:29:35;5.38;;;2.42;;
21777;SDS011;11050;52.222;20.916;2023-05-29T06:32:01;9.32;;;2.53;;
21777;SDS011;11050;52.222;20.916;2023-05-29T06:34:27;15.43;;;2.78;;
21777;SDS011;11050;52.222;20.916;2023-05-29T06:36:53;6.40;;;1.98;;
21777;SDS011;11050;52.222;20.916;2023-05-29T06:39:18;6.15;;;2.13;;
21777;SDS011;11050;52.222;20.916;2023-05-29T06:41:45;4.88;;;1.85;;
21777;SDS011;11050;52.222;20.916;2023-05-29T06:44:11;7.40;;;2.75;;
21777;SDS011;11050;52.222;20.916;2023-05-29T06:46:37;7.25;;;2.30;;
21777;SDS011;11050;52.222;20.916;2023-05-29T06:49:02;3.80;;;1.75;;
21777;SDS011;11050;52.222;20.916;2023-05-29T06:51:28;8.25;;;2.30;;
21777;SDS011;11050;52.222;20.916;2023-05-29T06:53:54;9.55;;;2.83;;
21777;SDS011;11050;52.222;20.916;2023-05-29T06:56:20;8.20;;;2.75;;
21777;SDS011;11050;52.222;20.916;2023-05-29T06:58:47;8.50;;;2.30;;
21777;SDS011;11050;52.222;20.916;2023-05-29T07:01:12;12.07;;;2.55;;
21777;SDS011;11050;52.222;20.916;2023-05-29T07:03:38;5.65;;;2.17;;
21777;SDS011;11050;52.222;20.916;2023-05-29T07:06:04;7.30;;;2.40;;
21777;SDS011;11050;52.222;20.916;2023-05-29T07:08:31;6.32;;;2.00;;
21777;SDS011;11050;52.222;20.916;2023-05-29T07:10:57;12.20;;;2.78;;
21777;SDS011;11050;52.222;20.916;2023-05-29T07:13:22;5.28;;;2.25;;
21777;SDS011;11050;52.222;20.916;2023-05-29T07:15:53;8.20;;;2.53;;
21777;SDS011;11050;52.222;20.916;2023-05-29T07:18:19;10.48;;;1.92;;
21777;SDS011;11050;52.222;20.916;2023-05-29T07:20:45;5.13;;;2.17;;
21777;SDS011;11050;52.222;20.916;2023-05-29T07:23:10;5.50;;;2.15;;
21777;SDS011;11050;52.222;20.916;2023-05-29T07:25:36;6.80;;;2.00;;
21777;SDS011;11050;52.222;20.916;2023-05-29T07:28:01;2.70;;;2.20;;
21777;SDS011;11050;52.222;20.916;2023-05-29T07:30:27;2.72;;;1.65;;
21777;SDS011;11050;52.222;20.916;2023-05-29T07:32:53;4.93;;;2.03;;
21777;SDS011;11050;52.222;20.916;2023-05-29T07:35:18;8.30;;;2.33;;
21777;SDS011;11050;52.222;20.916;2023-05-29T07:37:44;6.35;;;1.83;;
21777;SDS011;11050;52.222;20.916;2023-05-29T07:40:10;9.35;;;2.00;;
21777;SDS011;11050;52.222;20.916;2023-05-29T07:42:35;5.53;;;2.10;;
21777;SDS011;11050;52.222;20.916;2023-05-29T07:45:01;7.90;;;1.80;;
21777;SDS011;11050;52.222;20.916;2023-05-29T07:47:27;8.85;;;2.25;;
21777;SDS011;11050;52.222;20.916;2023-05-29T07:49:53;4.22;;;1.60;;
21777;SDS011;11050;52.222;20.916;2023-05-29T07:52:19;5.97;;;1.88;;
21777;SDS011;11050;52.222;20.916;2023-05-29T07:54:44;6.38;;;1.90;;
21777;SDS011;11050;52.222;20.916;2023-05-29T07:57:10;6.80;;;1.92;;
21777;SDS011;11050;52.222;20.916;2023-05-29T07:59:36;5.82;;;2.10;;
21777;SDS011;11050;52.222;20.916;2023-05-29T08:02:05;4.10;;;1.58;;
21777;SDS011;11050;52.222;20.916;2023-05-29T08:04:31;6.20;;;1.65;;
21777;SDS011;11050;52.222;20.916;2023-05-29T08:06:57;4.97;;;1.67;;
21777;SDS011;11050;52.222;20.916;2023-05-29T08:09:25;4.93;;;2.00;;
21777;SDS011;11050;52.222;20.916;2023-05-29T08:11:51;3.75;;;1.90;;
21777;SDS011;11050;52.222;20.916;2023-05-29T08:14:16;8.07;;;2.53;;
21777;SDS011;11050;52.222;20.916;2023-05-29T08:16:42;3.55;;;2.03;;
21777;SDS011;11050;52.222;20.916;2023-05-29T08:19:08;7.03;;;2.40;;
21777;SDS011;11050;52.222;20.916;2023-05-29T08:21:34;7.95;;;2.20;;
21777;SDS011;11050;52.222;20.916;2023-05-29T08:23:59;6.47;;;2.42;;
21777;SDS011;11050;52.222;20.916;2023-05-29T08:26:27;6.03;;;1.98;;
21777;SDS011;11050;52.222;20.916;2023-05-29T08:28:52;7.88;;;2.20;;
21777;SDS011;11050;52.222;20.916;2023-05-29T08:31:19;7.35;;;4.72;;
21777;SDS011;11050;52.222;20.916;2023-05-29T08:33:45;5.28;;;2.10;;
21777;SDS011;11050;52.222;20.916;2023-05-29T08:36:11;5.75;;;2.30;;
21777;SDS011;11050;52.222;20.916;2023-05-29T08:38:36;6.95;;;1.98;;
21777;SDS011;11050;52.222;20.916;2023-05-29T08:41:02;8.05;;;2.20;;
21777;SDS011;11050;52.222;20.916;2023-05-29T08:43:32;4.88;;;1.80;;
21777;SDS011;11050;52.222;20.916;2023-05-29T08:46:00;5.00;;;2.17;;
21777;SDS011;11050;52.222;20.916;2023-05-29T08:48:28;4.35;;;1.95;;
21777;SDS011;11050;52.222;20.916;2023-05-29T08:50:56;8.13;;;2.35;;
21777;SDS011;11050;52.222;20.916;2023-05-29T08:53:24;9.13;;;2.47;;
21777;SDS011;11050;52.222;20.916;2023-05-29T08:55:51;9.70;;;2.10;;
21777;SDS011;11050;52.222;20.916;2023-05-29T08:58:18;3.67;;;2.25;;
21777;SDS011;11050;52.222;20.916;2023-05-29T09:00:48;8.13;;;2.17;;
21777;SDS011;11050;52.222;20.916;2023-05-29T09:03:16;5.70;;;2.28;;
21777;SDS011;11050;52.222;20.916;2023-05-29T09:05:42;11.88;;;2.10;;
21777;SDS011;11050;52.222;20.916;2023-05-29T09:08:09;4.68;;;2.42;;
21777;SDS011;11050;52.222;20.916;2023-05-29T09:10:37;4.15;;;2.15;;
21777;SDS011;11050;52.222;20.916;2023-05-29T09:13:08;5.97;;;2.10;;
21777;SDS011;11050;52.222;20.916;2023-05-29T09:15:35;8.48;;;2.40;;
21777;SDS011;11050;52.222;20.916;2023-05-29T09:18:03;4.13;;;2.33;;
21777;SDS011;11050;52.222;20.916;2023-05-29T09:20:29;7.75;;;2.50;;
21777;SDS011;11050;52.222;20.916;2023-05-29T09:25:24;4.32;;;2.10;;
21777;SDS011;11050;52.222;20.916;2023-05-29T09:28:05;4.95;;;2.30;;
21777;SDS011;11050;52.222;20.916;2023-05-29T09:30:37;3.88;;;2.00;;
21777;SDS011;11050;52.222;20.916;2023-05-29T09:33:03;5.45;;;2.28;;
21777;SDS011;11050;52.222;20.916;2023-05-29T09:35:35;7.03;;;2.63;;
21777;SDS011;11050;52.222;20.916;2023-05-29T09:38:04;5.05;;;2.90;;
21777;SDS011;11050;52.222;20.916;2023-05-29T09:40:33;7.35;;;2.58;;
21777;SDS011;11050;52.222;20.916;2023-05-29T09:43:01;8.10;;;2.90;;
21777;SDS011;11050;52.222;20.916;2023-05-29T09:45:38;7.65;;;2.83;;
21777;SDS011;11050;52.222;20.916;2023-05-29T09:48:13;9.10;;;3.88;;
21777;SDS011;11050;52.222;20.916;2023-05-29T09:50:44;8.02;;;3.08;;
21777;SDS011;11050;52.222;20.916;2023-05-29T09:53:20;7.13;;;2.22;;
21777;SDS011;11050;52.222;20.916;2023-05-29T09:55:49;8.30;;;2.63;;
21777;SDS011;11050;52.222;20.916;2023-05-29T09:58:20;5.28;;;2.80;;
21777;SDS011;11050;52.222;20.916;2023-05-29T10:00:48;8.32;;;3.08;;
21777;SDS011;11050;52.222;20.916;2023-05-29T10:03:16;7.32;;;2.50;;
21777;SDS011;11050;52.222;20.916;2023-05-29T10:05:44;8.73;;;2.72;;
21777;SDS011;11050;52.222;20.916;2023-05-29T10:08:17;5.38;;;2.60;;
21777;SDS011;11050;52.222;20.916;2023-05-29T10:10:49;7.38;;;2.58;;
21777;SDS011;11050;52.222;20.916;2023-05-29T10:13:30;9.88;;;2.88;;
21777;SDS011;11050;52.222;20.916;2023-05-29T10:16:01;9.57;;;2.60;;
21777;SDS011;11050;52.222;20.916;2023-05-29T10:18:37;7.38;;;2.55;;
21777;SDS011;11050;52.222;20.916;2023-05-29T10:21:07;7.32;;;2.67;;
21777;SDS011;11050;52.222;20.916;2023-05-29T10:23:37;8.70;;;2.55;;
21777;SDS011;11050;52.222;20.916;2023-05-29T10:26:48;4.70;;;2.22;;
21777;SDS011;11050;52.222;20.916;2023-05-29T10:32:05;4.53;;;2.30;;
21777;SDS011;11050;52.222;20.916;2023-05-29T10:37:52;7.05;;;2.53;;
21777;SDS011;11050;52.222;20.916;2023-05-29T10:40:33;5.30;;;2.65;;
21777;SDS011;11050;52.222;20.916;2023-05-29T10:42:59;8.40;;;2.63;;
21777;SDS011;11050;52.222;20.916;2023-05-29T10:47:53;6.68;;;3.00;;
21777;SDS011;11050;52.222;20.916;2023-05-29T10:50:35;4.40;;;2.47;;
21777;SDS011;11050;52.222;20.916;2023-05-29T10:53:09;6.13;;;2.55;;
21777;SDS011;11050;52.222;20.916;2023-05-29T10:55:39;8.82;;;2.60;;
21777;SDS011;11050;52.222;20.916;2023-05-29T10:58:12;10.30;;;3.00;;
21777;SDS011;11050;52.222;20.916;2023-05-29T11:00:43;8.35;;;2.80;;
21777;SDS011;11050;52.222;20.916;2023-05-29T11:03:14;4.03;;;2.58;;
21777;SDS011;11050;52.222;20.916;2023-05-29T11:08:54;5.93;;;2.83;;
21777;SDS011;11050;52.222;20.916;2023-05-29T11:13:54;6.70;;;2.85;;
21777;SDS011;11050;52.222;20.916;2023-05-29T11:18:50;5.95;;;2.53;;
21777;SDS011;11050;52.222;20.916;2023-05-29T11:24:27;4.78;;;2.50;;
21777;SDS011;11050;52.222;20.916;2023-05-29T11:26:55;8.07;;;2.70;;
21777;SDS011;11050;52.222;20.916;2023-05-29T11:29:27;6.03;;;2.78;;
21777;SDS011;11050;52.222;20.916;2023-05-29T11:32:03;8.88;;;2.95;;
21777;SDS011;11050;52.222;20.916;2023-05-29T11:34:32;9.93;;;3.00;;
21777;SDS011;11050;52.222;20.916;2023-05-29T11:37:01;7.35;;;2.80;;
21777;SDS011;11050;52.222;20.916;2023-05-29T11:39:30;4.50;;;2.70;;
21777;SDS011;11050;52.222;20.916;2023-05-29T11:41:58;9.52;;;2.40;;
21777;SDS011;11050;52.222;20.916;2023-05-29T11:44:26;3.30;;;2.10;;
21777;SDS011;11050;52.222;20.916;2023-05-29T11:47:09;5.25;;;2.38;;
21777;SDS011;11050;52.222;20.916;2023-05-29T11:49:36;7.65;;;2.55;;
21777;SDS011;11050;52.222;20.916;2023-05-29T11:54:39;6.55;;;2.65;;
21777;SDS011;11050;52.222;20.916;2023-05-29T11:57:11;2.95;;;2.30;;
21777;SDS011;11050;52.222;20.916;2023-05-29T11:59:43;3.78;;;2.60;;
21777;SDS011;11050;52.222;20.916;2023-05-29T12:02:09;6.82;;;2.90;;
21777;SDS011;11050;52.222;20.916;2023-05-29T12:04:36;3.95;;;2.33;;
21777;SDS011;11050;52.222;20.916;2023-05-29T12:07:02;5.95;;;2.22;;
21777;SDS011;11050;52.222;20.916;2023-05-29T12:09:43;6.75;;;2.20;;
21777;SDS011;11050;52.222;20.916;2023-05-29T12:12:08;2.55;;;1.70;;
21777;SDS011;11050;52.222;20.916;2023-05-29T12:14:34;7.93;;;2.08;;
21777;SDS011;11050;52.222;20.916;2023-05-29T12:17:00;2.63;;;2.13;;
21777;SDS011;11050;52.222;20.916;2023-05-29T12:19:26;7.28;;;2.33;;
21777;SDS011;11050;52.222;20.916;2023-05-29T12:21:53;3.92;;;2.35;;
21777;SDS011;11050;52.222;20.916;2023-05-29T12:24:19;5.63;;;2.45;;
21777;SDS011;11050;52.222;20.916;2023-05-29T12:26:44;3.65;;;1.80;;
21777;SDS011;11050;52.222;20.916;2023-05-29T12:29:12;2.75;;;1.98;;
21777;SDS011;11050;52.222;20.916;2023-05-29T12:31:38;4.05;;;2.15;;
21777;SDS011;11050;52.222;20.916;2023-05-29T12:34:07;3.65;;;2.20;;
21777;SDS011;11050;52.222;20.916;2023-05-29T12:36:35;3.92;;;2.13;;
21777;SDS011;11050;52.222;20.916;2023-05-29T12:39:05;6.53;;;2.20;;
21777;SDS011;11050;52.222;20.916;2023-05-29T12:41:36;9.30;;;2.00;;
21777;SDS011;11050;52.222;20.916;2023-05-29T12:44:03;6.32;;;2.20;;
21777;SDS011;11050;52.222;20.916;2023-05-29T12:46:49;4.90;;;1.77;;
21777;SDS011;11050;52.222;20.916;2023-05-29T12:49:21;6.70;;;2.22;;
21777;SDS011;11050;52.222;20.916;2023-05-29T12:51:50;11.55;;;2.40;;
21777;SDS011;11050;52.222;20.916;2023-05-29T12:54:17;3.55;;;2.25;;
21777;SDS011;11050;52.222;20.916;2023-05-29T12:56:43;4.18;;;2.03;;
21777;SDS011;11050;52.222;20.916;2023-05-29T12:59:11;3.72;;;2.08;;
21777;SDS011;11050;52.222;20.916;2023-05-29T13:01:37;5.93;;;2.00;;
21777;SDS011;11050;52.222;20.916;2023-05-29T13:04:04;3.30;;;2.20;;
21777;SDS011;11050;52.222;20.916;2023-05-29T13:06:34;3.13;;;1.83;;
21777;SDS011;11050;52.222;20.916;2023-05-29T13:09:02;4.07;;;2.30;;
21777;SDS011;11050;52.222;20.916;2023-05-29T13:11:27;3.90;;;1.98;;
21777;SDS011;11050;52.222;20.916;2023-05-29T13:13:53;2.75;;;2.00;;
21777;SDS011;11050;52.222;20.916;2023-05-29T13:16:19;2.90;;;2.17;;
21777;SDS011;11050;52.222;20.916;2023-05-29T13:18:45;3.22;;;2.22;;
21777;SDS011;11050;52.222;20.916;2023-05-29T13:21:11;3.47;;;2.22;;
21777;SDS011;11050;52.222;20.916;2023-05-29T13:23:37;5.95;;;2.00;;
21777;SDS011;11050;52.222;20.916;2023-05-29T13:26:05;2.22;;;2.03;;
21777;SDS011;11050;52.222;20.916;2023-05-29T13:28:31;4.25;;;2.20;;
21777;SDS011;11050;52.222;20.916;2023-05-29T13:30:58;4.13;;;2.28;;
21777;SDS011;11050;52.222;20.916;2023-05-29T13:33:24;6.22;;;2.10;;
21777;SDS011;11050;52.222;20.916;2023-05-29T13:35:49;7.38;;;1.85;;
21777;SDS011;11050;52.222;20.916;2023-05-29T13:38:15;4.13;;;1.80;;
21777;SDS011;11050;52.222;20.916;2023-05-29T13:40:41;5.20;;;2.50;;
21777;SDS011;11050;52.222;20.916;2023-05-29T13:43:06;2.45;;;2.20;;
21777;SDS011;11050;52.222;20.916;2023-05-29T13:45:32;4.40;;;2.65;;
21777;SDS011;11050;52.222;20.916;2023-05-29T13:47:58;5.22;;;2.60;;
21777;SDS011;11050;52.222;20.916;2023-05-29T13:50:23;2.65;;;2.03;;
21777;SDS011;11050;52.222;20.916;2023-05-29T13:52:49;5.60;;;2.13;;
21777;SDS011;11050;52.222;20.916;2023-05-29T13:55:15;2.72;;;2.17;;
21777;SDS011;11050;52.222;20.916;2023-05-29T13:57:41;5.88;;;2.15;;
21777;SDS011;11050;52.222;20.916;2023-05-29T14:00:08;6.50;;;2.70;;
21777;SDS011;11050;52.222;20.916;2023-05-29T14:02:36;6.55;;;2.60;;
21777;SDS011;11050;52.222;20.916;2023-05-29T14:05:01;3.10;;;2.25;;
21777;SDS011;11050;52.222;20.916;2023-05-29T14:07:28;3.95;;;2.30;;
21777;SDS011;11050;52.222;20.916;2023-05-29T14:09:54;3.58;;;2.50;;
21777;SDS011;11050;52.222;20.916;2023-05-29T14:12:19;5.55;;;2.67;;
21777;SDS011;11050;52.222;20.916;2023-05-29T14:14:45;7.25;;;2.10;;
21777;SDS011;11050;52.222;20.916;2023-05-29T14:17:11;6.32;;;2.50;;
21777;SDS011;11050;52.222;20.916;2023-05-29T14:19:37;9.77;;;2.60;;
21777;SDS011;11050;52.222;20.916;2023-05-29T14:22:03;4.72;;;2.15;;
21777;SDS011;11050;52.222;20.916;2023-05-29T14:24:29;3.42;;;2.47;;
21777;SDS011;11050;52.222;20.916;2023-05-29T14:26:55;8.85;;;2.78;;
21777;SDS011;11050;52.222;20.916;2023-05-29T14:29:20;4.10;;;2.22;;
21777;SDS011;11050;52.222;20.916;2023-05-29T14:31:46;5.25;;;2.55;;
21777;SDS011;11050;52.222;20.916;2023-05-29T14:34:12;4.82;;;2.03;;
21777;SDS011;11050;52.222;20.916;2023-05-29T14:36:38;1.85;;;1.75;;
21777;SDS011;11050;52.222;20.916;2023-05-29T14:39:04;3.25;;;2.20;;
21777;SDS011;11050;52.222;20.916;2023-05-29T14:41:31;4.28;;;2.15;;
21777;SDS011;11050;52.222;20.916;2023-05-29T14:43:58;4.65;;;2.80;;
21777;SDS011;11050;52.222;20.916;2023-05-29T14:46:26;5.35;;;2.35;;
21777;SDS011;11050;52.222;20.916;2023-05-29T14:48:56;5.40;;;2.10;;
21777;SDS011;11050;52.222;20.916;2023-05-29T14:51:25;8.88;;;2.88;;
21777;SDS011;11050;52.222;20.916;2023-05-29T14:53:51;7.25;;;2.85;;
21777;SDS011;11050;52.222;20.916;2023-05-29T14:56:17;3.30;;;2.40;;
21777;SDS011;11050;52.222;20.916;2023-05-29T14:58:44;5.32;;;2.47;;
21777;SDS011;11050;52.222;20.916;2023-05-29T15:01:10;5.43;;;2.30;;
21777;SDS011;11050;52.222;20.916;2023-05-29T15:03:36;6.15;;;2.85;;
21777;SDS011;11050;52.222;20.916;2023-05-29T15:06:05;4.57;;;2.25;;
21777;SDS011;11050;52.222;20.916;2023-05-29T15:08:31;4.28;;;2.60;;
21777;SDS011;11050;52.222;20.916;2023-05-29T15:11:00;6.07;;;2.72;;
21777;SDS011;11050;52.222;20.916;2023-05-29T15:13:27;2.28;;;2.08;;